sensor_id;sensor_type;location;lat;lon;timestamp;P1;durP1;ratioP1;P2;durP2;ratioP2
33206;SDS011;19565;46.602;11.534;2023-04-29T00:01:12;0.85;;;0.85;;
33206;SDS011;19565;46.602;11.534;2023-04-29T00:03:40;0.67;;;0.67;;
33206;SDS011;19565;46.602;11.534;2023-04-29T00:06:08;1.40;;;1.30;;
33206;SDS011;19565;46.602;11.534;2023-04-29T00:08:37;2.20;;;1.83;;
33206;SDS011;19565;46.602;11.534;2023-04-29T00:11:06;3.13;;;2.10;;
33206;SDS011;19565;46.602;11.534;2023-04-29T00:13:34;2.30;;;1.63;;
33206;SDS011;19565;46.602;11.534;2023-04-29T00:16:02;2.17;;;1.07;;
33206;SDS011;19565;46.602;11.534;2023-04-29T00:18:32;1.27;;;1.20;;
33206;SDS011;19565;46.602;11.534;2023-04-29T00:21:00;1.87;;;1.77;;
33206;SDS011;19565;46.602;11.534;2023-04-29T00:23:31;2.37;;;1.53;;
33206;SDS011;19565;46.602;11.534;2023-04-29T00:25:59;3.40;;;2.33;;
33206;SDS011;19565;46.602;11.534;2023-04-29T00:28:27;1.17;;;1.10;;
33206;SDS011;19565;46.602;11.534;2023-04-29T00:30:55;1.03;;;0.80;;
33206;SDS011;19565;46.602;11.534;2023-04-29T00:33:23;3.70;;;2.72;;
33206;SDS011;19565;46.602;11.534;2023-04-29T00:35:53;2.20;;;1.70;;
33206;SDS011;19565;46.602;11.534;2023-04-29T00:38:21;4.07;;;1.07;;
33206;SDS011;19565;46.602;11.534;2023-04-29T00:40:49;2.63;;;2.43;;
33206;SDS011;19565;46.602;11.534;2023-04-29T00:43:18;1.30;;;1.20;;
33206;SDS011;19565;46.602;11.534;2023-04-29T00:45:46;2.37;;;2.17;;
33206;SDS011;19565;46.602;11.534;2023-04-29T00:48:16;2.03;;;1.73;;
33206;SDS011;19565;46.602;11.534;2023-04-29T00:50:44;1.13;;;1.10;;
33206;SDS011;19565;46.602;11.534;2023-04-29T00:53:13;1.23;;;1.17;;
33206;SDS011;19565;46.602;11.534;2023-04-29T00:55:41;3.28;;;2.42;;
33206;SDS011;19565;46.602;11.534;2023-04-29T00:58:10;1.25;;;1.15;;
33206;SDS011;19565;46.602;11.534;2023-04-29T01:00:38;2.20;;;1.73;;
33206;SDS011;19565;46.602;11.534;2023-04-29T01:03:09;4.00;;;1.90;;
33206;SDS011;19565;46.602;11.534;2023-04-29T01:05:37;0.97;;;0.90;;
33206;SDS011;19565;46.602;11.534;2023-04-29T01:08:11;2.23;;;2.07;;
33206;SDS011;19565;46.602;11.534;2023-04-29T01:10:46;1.50;;;1.40;;
33206;SDS011;19565;46.602;11.534;2023-04-29T01:13:21;1.00;;;1.00;;
33206;SDS011;19565;46.602;11.534;2023-04-29T01:15:58;3.77;;;1.67;;
33206;SDS011;19565;46.602;11.534;2023-04-29T01:18:30;1.43;;;1.33;;
33206;SDS011;19565;46.602;11.534;2023-04-29T01:21:00;1.97;;;1.40;;
33206;SDS011;19565;46.602;11.534;2023-04-29T01:23:30;1.20;;;0.80;;
33206;SDS011;19565;46.602;11.534;2023-04-29T01:25:58;3.10;;;1.63;;
33206;SDS011;19565;46.602;11.534;2023-04-29T01:28:30;3.08;;;1.92;;
33206;SDS011;19565;46.602;11.534;2023-04-29T01:31:07;1.50;;;1.40;;
33206;SDS011;19565;46.602;11.534;2023-04-29T01:33:43;1.95;;;1.35;;
33206;SDS011;19565;46.602;11.534;2023-04-29T01:36:21;2.38;;;2.17;;
33206;SDS011;19565;46.602;11.534;2023-04-29T01:39:02;2.33;;;1.60;;
33206;SDS011;19565;46.602;11.534;2023-04-29T01:41:39;1.63;;;1.53;;
33206;SDS011;19565;46.602;11.534;2023-04-29T01:44:12;3.90;;;2.47;;
33206;SDS011;19565;46.602;11.534;2023-04-29T01:46:43;1.65;;;1.55;;
33206;SDS011;19565;46.602;11.534;2023-04-29T01:49:18;1.95;;;1.67;;
33206;SDS011;19565;46.602;11.534;2023-04-29T01:51:47;1.07;;;1.00;;
33206;SDS011;19565;46.602;11.534;2023-04-29T01:54:16;1.52;;;1.42;;
33206;SDS011;19565;46.602;11.534;2023-04-29T01:56:44;2.23;;;1.97;;
33206;SDS011;19565;46.602;11.534;2023-04-29T01:59:12;2.43;;;2.23;;
33206;SDS011;19565;46.602;11.534;2023-04-29T02:01:40;3.40;;;2.67;;
33206;SDS011;19565;46.602;11.534;2023-04-29T02:04:09;6.27;;;3.13;;
33206;SDS011;19565;46.602;11.534;2023-04-29T02:06:37;5.38;;;3.05;;
33206;SDS011;19565;46.602;11.534;2023-04-29T02:09:05;2.53;;;2.27;;
33206;SDS011;19565;46.602;11.534;2023-04-29T02:11:34;3.10;;;2.33;;
33206;SDS011;19565;46.602;11.534;2023-04-29T02:14:02;3.73;;;3.40;;
33206;SDS011;19565;46.602;11.534;2023-04-29T02:16:30;3.97;;;3.47;;
33206;SDS011;19565;46.602;11.534;2023-04-29T02:18:58;2.70;;;2.47;;
33206;SDS011;19565;46.602;11.534;2023-04-29T02:21:26;2.23;;;1.77;;
33206;SDS011;19565;46.602;11.534;2023-04-29T02:23:54;1.60;;;1.40;;
33206;SDS011;19565;46.602;11.534;2023-04-29T02:26:22;2.60;;;2.33;;
33206;SDS011;19565;46.602;11.534;2023-04-29T02:28:51;1.80;;;1.40;;
33206;SDS011;19565;46.602;11.534;2023-04-29T02:31:20;1.67;;;1.57;;
33206;SDS011;19565;46.602;11.534;2023-04-29T02:33:48;2.00;;;1.80;;
33206;SDS011;19565;46.602;11.534;2023-04-29T02:36:16;1.70;;;1.60;;
33206;SDS011;19565;46.602;11.534;2023-04-29T02:38:44;1.63;;;1.53;;
33206;SDS011;19565;46.602;11.534;2023-04-29T02:41:15;3.60;;;3.30;;
33206;SDS011;19565;46.602;11.534;2023-04-29T02:43:43;4.00;;;2.97;;
33206;SDS011;19565;46.602;11.534;2023-04-29T02:46:13;3.30;;;2.30;;
33206;SDS011;19565;46.602;11.534;2023-04-29T02:48:41;2.73;;;2.00;;
33206;SDS011;19565;46.602;11.534;2023-04-29T02:51:09;1.60;;;1.13;;
33206;SDS011;19565;46.602;11.534;2023-04-29T02:53:37;1.77;;;1.67;;
33206;SDS011;19565;46.602;11.534;2023-04-29T02:56:05;1.60;;;1.50;;
33206;SDS011;19565;46.602;11.534;2023-04-29T02:58:33;2.03;;;1.80;;
33206;SDS011;19565;46.602;11.534;2023-04-29T03:01:01;2.67;;;2.47;;
33206;SDS011;19565;46.602;11.534;2023-04-29T03:03:31;2.33;;;2.13;;
33206;SDS011;19565;46.602;11.534;2023-04-29T03:05:59;3.70;;;2.03;;
33206;SDS011;19565;46.602;11.534;2023-04-29T03:08:27;1.80;;;1.30;;
33206;SDS011;19565;46.602;11.534;2023-04-29T03:10:55;4.22;;;1.45;;
33206;SDS011;19565;46.602;11.534;2023-04-29T03:13:24;1.13;;;1.07;;
33206;SDS011;19565;46.602;11.534;2023-04-29T03:15:51;1.73;;;1.60;;
33206;SDS011;19565;46.602;11.534;2023-04-29T03:18:20;2.13;;;1.57;;
33206;SDS011;19565;46.602;11.534;2023-04-29T03:20:49;1.67;;;1.37;;
33206;SDS011;19565;46.602;11.534;2023-04-29T03:23:19;1.60;;;1.47;;
33206;SDS011;19565;46.602;11.534;2023-04-29T03:25:47;4.93;;;2.60;;
33206;SDS011;19565;46.602;11.534;2023-04-29T03:28:15;1.60;;;1.50;;
33206;SDS011;19565;46.602;11.534;2023-04-29T03:30:43;1.73;;;1.53;;
33206;SDS011;19565;46.602;11.534;2023-04-29T03:33:11;3.70;;;2.73;;
33206;SDS011;19565;46.602;11.534;2023-04-29T03:35:39;12.73;;;2.53;;
33206;SDS011;19565;46.602;11.534;2023-04-29T03:38:09;1.63;;;1.53;;
33206;SDS011;19565;46.602;11.534;2023-04-29T03:40:37;2.57;;;2.20;;
33206;SDS011;19565;46.602;11.534;2023-04-29T03:43:06;2.37;;;2.13;;
33206;SDS011;19565;46.602;11.534;2023-04-29T03:45:34;2.00;;;1.90;;
33206;SDS011;19565;46.602;11.534;2023-04-29T03:48:02;7.27;;;2.50;;
33206;SDS011;19565;46.602;11.534;2023-04-29T03:50:31;1.50;;;1.20;;
33206;SDS011;19565;46.602;11.534;2023-04-29T03:52:59;2.07;;;1.80;;
33206;SDS011;19565;46.602;11.534;2023-04-29T03:55:28;2.50;;;2.10;;
33206;SDS011;19565;46.602;11.534;2023-04-29T03:57:56;8.73;;;2.07;;
33206;SDS011;19565;46.602;11.534;2023-04-29T04:00:24;1.03;;;1.03;;
33206;SDS011;19565;46.602;11.534;2023-04-29T04:02:56;2.57;;;1.90;;
33206;SDS011;19565;46.602;11.534;2023-04-29T04:05:25;1.87;;;1.70;;
33206;SDS011;19565;46.602;11.534;2023-04-29T04:07:53;1.83;;;1.73;;
33206;SDS011;19565;46.602;11.534;2023-04-29T04:10:21;0.70;;;0.60;;
33206;SDS011;19565;46.602;11.534;2023-04-29T04:12:50;4.70;;;1.77;;
33206;SDS011;19565;46.602;11.534;2023-04-29T04:15:18;1.63;;;1.53;;
33206;SDS011;19565;46.602;11.534;2023-04-29T04:17:47;2.53;;;1.53;;
33206;SDS011;19565;46.602;11.534;2023-04-29T04:20:15;1.57;;;1.37;;
33206;SDS011;19565;46.602;11.534;2023-04-29T04:22:44;1.63;;;1.53;;
33206;SDS011;19565;46.602;11.534;2023-04-29T04:25:12;2.20;;;1.37;;
33206;SDS011;19565;46.602;11.534;2023-04-29T04:27:40;0.77;;;0.73;;
33206;SDS011;19565;46.602;11.534;2023-04-29T04:30:10;2.70;;;2.40;;
33206;SDS011;19565;46.602;11.534;2023-04-29T04:32:38;1.70;;;1.60;;
33206;SDS011;19565;46.602;11.534;2023-04-29T04:35:07;1.70;;;1.60;;
33206;SDS011;19565;46.602;11.534;2023-04-29T04:37:35;0.97;;;0.97;;
33206;SDS011;19565;46.602;11.534;2023-04-29T04:40:03;3.57;;;2.50;;
33206;SDS011;19565;46.602;11.534;2023-04-29T04:42:32;3.03;;;1.50;;
33206;SDS011;19565;46.602;11.534;2023-04-29T04:45:01;0.80;;;0.80;;
33206;SDS011;19565;46.602;11.534;2023-04-29T04:47:30;0.90;;;0.90;;
33206;SDS011;19565;46.602;11.534;2023-04-29T04:49:58;1.60;;;1.50;;
33206;SDS011;19565;46.602;11.534;2023-04-29T04:52:26;2.43;;;1.40;;
33206;SDS011;19565;46.602;11.534;2023-04-29T04:54:54;1.93;;;1.77;;
33206;SDS011;19565;46.602;11.534;2023-04-29T04:57:22;1.50;;;1.23;;
33206;SDS011;19565;46.602;11.534;2023-04-29T04:59:51;2.67;;;1.87;;
33206;SDS011;19565;46.602;11.534;2023-04-29T05:02:19;1.40;;;1.27;;
33206;SDS011;19565;46.602;11.534;2023-04-29T05:04:48;1.03;;;1.03;;
33206;SDS011;19565;46.602;11.534;2023-04-29T05:07:17;2.40;;;2.20;;
33206;SDS011;19565;46.602;11.534;2023-04-29T05:09:44;2.60;;;2.40;;
33206;SDS011;19565;46.602;11.534;2023-04-29T05:12:12;2.33;;;2.13;;
33206;SDS011;19565;46.602;11.534;2023-04-29T05:14:41;2.20;;;1.47;;
33206;SDS011;19565;46.602;11.534;2023-04-29T05:17:09;1.63;;;1.57;;
33206;SDS011;19565;46.602;11.534;2023-04-29T05:19:37;1.37;;;1.27;;
33206;SDS011;19565;46.602;11.534;2023-04-29T05:22:06;1.07;;;0.93;;
33206;SDS011;19565;46.602;11.534;2023-04-29T05:24:34;1.00;;;1.00;;
33206;SDS011;19565;46.602;11.534;2023-04-29T05:27:02;1.67;;;1.57;;
33206;SDS011;19565;46.602;11.534;2023-04-29T05:29:30;1.43;;;0.93;;
33206;SDS011;19565;46.602;11.534;2023-04-29T05:31:58;1.43;;;1.33;;
33206;SDS011;19565;46.602;11.534;2023-04-29T05:34:26;2.20;;;2.00;;
33206;SDS011;19565;46.602;11.534;2023-04-29T05:36:54;3.27;;;1.47;;
33206;SDS011;19565;46.602;11.534;2023-04-29T05:39:24;2.70;;;2.50;;
33206;SDS011;19565;46.602;11.534;2023-04-29T05:41:52;2.07;;;1.87;;
33206;SDS011;19565;46.602;11.534;2023-04-29T05:44:19;1.70;;;1.60;;
33206;SDS011;19565;46.602;11.534;2023-04-29T05:46:48;2.50;;;2.30;;
33206;SDS011;19565;46.602;11.534;2023-04-29T05:49:17;1.53;;;1.43;;
33206;SDS011;19565;46.602;11.534;2023-04-29T05:51:44;5.60;;;1.90;;
33206;SDS011;19565;46.602;11.534;2023-04-29T05:54:12;0.93;;;0.87;;
33206;SDS011;19565;46.602;11.534;2023-04-29T05:56:42;2.50;;;1.90;;
33206;SDS011;19565;46.602;11.534;2023-04-29T05:59:10;1.10;;;1.00;;
33206;SDS011;19565;46.602;11.534;2023-04-29T06:01:38;2.10;;;1.90;;
33206;SDS011;19565;46.602;11.534;2023-04-29T06:04:06;2.87;;;2.50;;
33206;SDS011;19565;46.602;11.534;2023-04-29T06:06:34;0.90;;;0.90;;
33206;SDS011;19565;46.602;11.534;2023-04-29T06:09:02;3.30;;;2.20;;
33206;SDS011;19565;46.602;11.534;2023-04-29T06:11:46;2.13;;;1.50;;
33206;SDS011;19565;46.602;11.534;2023-04-29T06:14:14;2.13;;;1.63;;
33206;SDS011;19565;46.602;11.534;2023-04-29T06:16:42;1.93;;;1.80;;
33206;SDS011;19565;46.602;11.534;2023-04-29T06:19:10;1.57;;;1.47;;
33206;SDS011;19565;46.602;11.534;2023-04-29T06:21:38;1.77;;;1.67;;
33206;SDS011;19565;46.602;11.534;2023-04-29T06:24:06;2.55;;;2.35;;
33206;SDS011;19565;46.602;11.534;2023-04-29T06:26:34;1.37;;;1.33;;
33206;SDS011;19565;46.602;11.534;2023-04-29T06:29:04;2.37;;;2.17;;
33206;SDS011;19565;46.602;11.534;2023-04-29T06:31:32;1.20;;;1.10;;
33206;SDS011;19565;46.602;11.534;2023-04-29T06:34:00;2.00;;;1.90;;
33206;SDS011;19565;46.602;11.534;2023-04-29T06:36:30;2.63;;;2.20;;
33206;SDS011;19565;46.602;11.534;2023-04-29T06:38:58;3.37;;;2.43;;
33206;SDS011;19565;46.602;11.534;2023-04-29T06:41:26;3.45;;;2.40;;
33206;SDS011;19565;46.602;11.534;2023-04-29T06:43:54;2.63;;;2.30;;
33206;SDS011;19565;46.602;11.534;2023-04-29T06:46:24;3.13;;;2.60;;
33206;SDS011;19565;46.602;11.534;2023-04-29T06:48:53;2.38;;;2.22;;
33206;SDS011;19565;46.602;11.534;2023-04-29T06:51:21;2.37;;;2.17;;
33206;SDS011;19565;46.602;11.534;2023-04-29T06:53:50;2.30;;;2.10;;
33206;SDS011;19565;46.602;11.534;2023-04-29T06:56:18;2.80;;;2.40;;
33206;SDS011;19565;46.602;11.534;2023-04-29T06:58:46;2.67;;;2.33;;
33206;SDS011;19565;46.602;11.534;2023-04-29T07:01:14;2.70;;;1.73;;
33206;SDS011;19565;46.602;11.534;2023-04-29T07:03:43;4.47;;;2.50;;
33206;SDS011;19565;46.602;11.534;2023-04-29T07:06:11;2.10;;;1.50;;
33206;SDS011;19565;46.602;11.534;2023-04-29T07:08:39;1.48;;;1.38;;
33206;SDS011;19565;46.602;11.534;2023-04-29T07:11:07;1.33;;;1.20;;
33206;SDS011;19565;46.602;11.534;2023-04-29T07:13:35;1.27;;;1.17;;
33206;SDS011;19565;46.602;11.534;2023-04-29T07:16:04;2.28;;;1.98;;
33206;SDS011;19565;46.602;11.534;2023-04-29T07:18:40;2.15;;;1.73;;
33206;SDS011;19565;46.602;11.534;2023-04-29T07:21:10;2.88;;;1.63;;
33206;SDS011;19565;46.602;11.534;2023-04-29T07:23:38;3.47;;;2.20;;
33206;SDS011;19565;46.602;11.534;2023-04-29T07:26:09;2.00;;;1.83;;
33206;SDS011;19565;46.602;11.534;2023-04-29T07:28:38;2.22;;;2.03;;
33206;SDS011;19565;46.602;11.534;2023-04-29T07:31:07;1.00;;;0.95;;
33206;SDS011;19565;46.602;11.534;2023-04-29T07:33:36;1.75;;;1.65;;
33206;SDS011;19565;46.602;11.534;2023-04-29T07:36:04;1.45;;;1.35;;
33206;SDS011;19565;46.602;11.534;2023-04-29T07:38:34;1.85;;;1.55;;
33206;SDS011;19565;46.602;11.534;2023-04-29T07:41:02;1.88;;;1.48;;
33206;SDS011;19565;46.602;11.534;2023-04-29T07:43:30;1.45;;;1.35;;
33206;SDS011;19565;46.602;11.534;2023-04-29T07:45:58;2.22;;;2.03;;
33206;SDS011;19565;46.602;11.534;2023-04-29T07:48:26;2.65;;;2.45;;
33206;SDS011;19565;46.602;11.534;2023-04-29T07:50:54;2.25;;;2.05;;
33206;SDS011;19565;46.602;11.534;2023-04-29T07:53:22;2.10;;;1.90;;
33206;SDS011;19565;46.602;11.534;2023-04-29T07:55:52;3.08;;;2.05;;
33206;SDS011;19565;46.602;11.534;2023-04-29T07:58:20;2.92;;;2.67;;
33206;SDS011;19565;46.602;11.534;2023-04-29T08:00:48;1.75;;;1.65;;
33206;SDS011;19565;46.602;11.534;2023-04-29T08:03:16;2.20;;;2.10;;
33206;SDS011;19565;46.602;11.534;2023-04-29T08:05:44;2.95;;;2.72;;
33206;SDS011;19565;46.602;11.534;2023-04-29T08:08:13;3.15;;;2.85;;
33206;SDS011;19565;46.602;11.534;2023-04-29T08:10:41;3.80;;;2.47;;
33206;SDS011;19565;46.602;11.534;2023-04-29T08:13:11;2.55;;;2.17;;
33206;SDS011;19565;46.602;11.534;2023-04-29T08:15:39;1.67;;;1.58;;
33206;SDS011;19565;46.602;11.534;2023-04-29T08:18:07;2.20;;;2.08;;
33206;SDS011;19565;46.602;11.534;2023-04-29T08:20:35;1.88;;;1.73;;
33206;SDS011;19565;46.602;11.534;2023-04-29T08:23:03;1.90;;;1.80;;
33206;SDS011;19565;46.602;11.534;2023-04-29T08:25:31;1.38;;;1.38;;
33206;SDS011;19565;46.602;11.534;2023-04-29T08:27:59;1.83;;;1.75;;
33206;SDS011;19565;46.602;11.534;2023-04-29T08:30:28;2.00;;;1.90;;
33206;SDS011;19565;46.602;11.534;2023-04-29T08:32:56;2.92;;;2.65;;
33206;SDS011;19565;46.602;11.534;2023-04-29T08:35:24;2.90;;;2.70;;
33206;SDS011;19565;46.602;11.534;2023-04-29T08:37:52;3.20;;;3.00;;
33206;SDS011;19565;46.602;11.534;2023-04-29T08:40:20;3.38;;;2.75;;
33206;SDS011;19565;46.602;11.534;2023-04-29T08:42:48;3.28;;;3.08;;
33206;SDS011;19565;46.602;11.534;2023-04-29T08:45:17;3.05;;;2.80;;
33206;SDS011;19565;46.602;11.534;2023-04-29T08:47:50;3.13;;;2.90;;
33206;SDS011;19565;46.602;11.534;2023-04-29T08:50:19;2.70;;;2.50;;
33206;SDS011;19565;46.602;11.534;2023-04-29T08:52:48;2.63;;;2.25;;
33206;SDS011;19565;46.602;11.534;2023-04-29T08:55:17;3.10;;;2.88;;
33206;SDS011;19565;46.602;11.534;2023-04-29T08:57:45;3.33;;;3.13;;
33206;SDS011;19565;46.602;11.534;2023-04-29T09:00:15;3.50;;;3.30;;
33206;SDS011;19565;46.602;11.534;2023-04-29T09:02:46;4.85;;;4.55;;
33206;SDS011;19565;46.602;11.534;2023-04-29T09:05:18;7.38;;;6.88;;
33206;SDS011;19565;46.602;11.534;2023-04-29T09:07:47;10.05;;;9.45;;
33206;SDS011;19565;46.602;11.534;2023-04-29T09:10:16;14.23;;;13.38;;
33206;SDS011;19565;46.602;11.534;2023-04-29T09:12:45;14.90;;;14.02;;
33206;SDS011;19565;46.602;11.534;2023-04-29T09:15:13;16.60;;;15.70;;
33206;SDS011;19565;46.602;11.534;2023-04-29T09:17:42;16.25;;;15.45;;
33206;SDS011;19565;46.602;11.534;2023-04-29T09:20:28;16.98;;;16.15;;
33206;SDS011;19565;46.602;11.534;2023-04-29T09:22:58;17.08;;;16.27;;
33206;SDS011;19565;46.602;11.534;2023-04-29T09:25:27;17.20;;;16.40;;
33206;SDS011;19565;46.602;11.534;2023-04-29T09:27:56;17.77;;;16.88;;
33206;SDS011;19565;46.602;11.534;2023-04-29T09:30:24;18.45;;;17.55;;
33206;SDS011;19565;46.602;11.534;2023-04-29T09:33:05;18.67;;;17.73;;
33206;SDS011;19565;46.602;11.534;2023-04-29T09:35:38;18.67;;;17.73;;
33206;SDS011;19565;46.602;11.534;2023-04-29T09:38:07;19.95;;;18.95;;
33206;SDS011;19565;46.602;11.534;2023-04-29T09:40:37;19.00;;;18.10;;
33206;SDS011;19565;46.602;11.534;2023-04-29T09:43:23;19.48;;;18.48;;
33206;SDS011;19565;46.602;11.534;2023-04-29T09:45:52;19.35;;;18.45;;
33206;SDS011;19565;46.602;11.534;2023-04-29T09:48:20;18.83;;;17.85;;
33206;SDS011;19565;46.602;11.534;2023-04-29T09:50:59;20.20;;;19.20;;
33206;SDS011;19565;46.602;11.534;2023-04-29T09:53:29;18.77;;;17.88;;
33206;SDS011;19565;46.602;11.534;2023-04-29T09:55:58;19.95;;;18.95;;
33206;SDS011;19565;46.602;11.534;2023-04-29T09:58:27;19.20;;;18.30;;
33206;SDS011;19565;46.602;11.534;2023-04-29T10:01:01;19.02;;;18.13;;
33206;SDS011;19565;46.602;11.534;2023-04-29T10:03:31;19.35;;;18.45;;
33206;SDS011;19565;46.602;11.534;2023-04-29T10:06:02;19.77;;;18.77;;
33206;SDS011;19565;46.602;11.534;2023-04-29T10:08:31;18.75;;;17.85;;
33206;SDS011;19565;46.602;11.534;2023-04-29T10:11:01;19.85;;;18.90;;
33206;SDS011;19565;46.602;11.534;2023-04-29T10:13:31;18.40;;;17.50;;
33206;SDS011;19565;46.602;11.534;2023-04-29T10:16:07;18.75;;;17.85;;
33206;SDS011;19565;46.602;11.534;2023-04-29T10:18:47;18.67;;;17.77;;
33206;SDS011;19565;46.602;11.534;2023-04-29T10:21:23;19.00;;;18.10;;
33206;SDS011;19565;46.602;11.534;2023-04-29T10:23:55;19.00;;;18.10;;
33206;SDS011;19565;46.602;11.534;2023-04-29T10:26:26;19.27;;;18.38;;
33206;SDS011;19565;46.602;11.534;2023-04-29T10:28:55;19.20;;;18.30;;
33206;SDS011;19565;46.602;11.534;2023-04-29T10:31:25;19.05;;;18.15;;
33206;SDS011;19565;46.602;11.534;2023-04-29T10:33:54;18.95;;;18.05;;
33206;SDS011;19565;46.602;11.534;2023-04-29T10:36:25;19.58;;;18.13;;
33206;SDS011;19565;46.602;11.534;2023-04-29T10:38:56;18.55;;;17.65;;
33206;SDS011;19565;46.602;11.534;2023-04-29T10:41:27;19.00;;;18.10;;
33206;SDS011;19565;46.602;11.534;2023-04-29T10:43:59;18.73;;;17.83;;
33206;SDS011;19565;46.602;11.534;2023-04-29T10:46:29;18.77;;;17.77;;
33206;SDS011;19565;46.602;11.534;2023-04-29T10:48:59;18.90;;;18.00;;
33206;SDS011;19565;46.602;11.534;2023-04-29T10:51:31;18.90;;;18.00;;
33206;SDS011;19565;46.602;11.534;2023-04-29T10:54:02;18.67;;;17.77;;
33206;SDS011;19565;46.602;11.534;2023-04-29T10:56:36;18.65;;;17.75;;
33206;SDS011;19565;46.602;11.534;2023-04-29T10:59:08;18.70;;;17.80;;
33206;SDS011;19565;46.602;11.534;2023-04-29T11:01:45;19.08;;;18.17;;
33206;SDS011;19565;46.602;11.534;2023-04-29T11:04:15;18.42;;;17.52;;
33206;SDS011;19565;46.602;11.534;2023-04-29T11:06:50;19.05;;;18.15;;
33206;SDS011;19565;46.602;11.534;2023-04-29T11:09:19;18.92;;;18.02;;
33206;SDS011;19565;46.602;11.534;2023-04-29T11:11:59;18.90;;;18.00;;
33206;SDS011;19565;46.602;11.534;2023-04-29T11:14:31;19.08;;;18.17;;
33206;SDS011;19565;46.602;11.534;2023-04-29T11:17:03;18.67;;;17.77;;
33206;SDS011;19565;46.602;11.534;2023-04-29T11:19:36;18.70;;;17.80;;
33206;SDS011;19565;46.602;11.534;2023-04-29T11:22:10;18.45;;;17.55;;
33206;SDS011;19565;46.602;11.534;2023-04-29T11:24:51;18.90;;;17.90;;
33206;SDS011;19565;46.602;11.534;2023-04-29T11:27:22;18.50;;;17.60;;
33206;SDS011;19565;46.602;11.534;2023-04-29T11:29:52;18.50;;;17.60;;
33206;SDS011;19565;46.602;11.534;2023-04-29T11:32:29;18.63;;;17.73;;
33206;SDS011;19565;46.602;11.534;2023-04-29T11:35:08;19.25;;;18.33;;
33206;SDS011;19565;46.602;11.534;2023-04-29T11:37:38;18.27;;;17.38;;
33206;SDS011;19565;46.602;11.534;2023-04-29T11:40:07;18.50;;;17.60;;
33206;SDS011;19565;46.602;11.534;2023-04-29T11:42:39;18.17;;;17.27;;
33206;SDS011;19565;46.602;11.534;2023-04-29T11:45:09;18.63;;;17.73;;
33206;SDS011;19565;46.602;11.534;2023-04-29T11:47:40;18.90;;;18.00;;
33206;SDS011;19565;46.602;11.534;2023-04-29T11:50:10;18.45;;;17.55;;
33206;SDS011;19565;46.602;11.534;2023-04-29T11:52:42;18.45;;;17.55;;
33206;SDS011;19565;46.602;11.534;2023-04-29T11:55:12;18.90;;;18.00;;
33206;SDS011;19565;46.602;11.534;2023-04-29T11:57:40;18.13;;;17.23;;
33206;SDS011;19565;46.602;11.534;2023-04-29T12:00:09;18.60;;;17.70;;
33206;SDS011;19565;46.602;11.534;2023-04-29T12:02:38;17.55;;;16.75;;
33206;SDS011;19565;46.602;11.534;2023-04-29T12:05:12;18.15;;;17.25;;
33206;SDS011;19565;46.602;11.534;2023-04-29T12:07:44;18.35;;;17.45;;
33206;SDS011;19565;46.602;11.534;2023-04-29T12:10:12;18.67;;;17.77;;
33206;SDS011;19565;46.602;11.534;2023-04-29T12:12:40;18.00;;;17.10;;
33206;SDS011;19565;46.602;11.534;2023-04-29T12:15:10;18.63;;;17.73;;
33206;SDS011;19565;46.602;11.534;2023-04-29T12:17:39;18.67;;;17.50;;
33206;SDS011;19565;46.602;11.534;2023-04-29T12:20:09;18.17;;;17.27;;
33206;SDS011;19565;46.602;11.534;2023-04-29T12:22:38;18.40;;;17.50;;
33206;SDS011;19565;46.602;11.534;2023-04-29T12:25:08;17.88;;;16.98;;
33206;SDS011;19565;46.602;11.534;2023-04-29T12:27:38;18.10;;;17.20;;
33206;SDS011;19565;46.602;11.534;2023-04-29T12:30:08;19.23;;;18.33;;
33206;SDS011;19565;46.602;11.534;2023-04-29T12:32:37;18.90;;;18.00;;
33206;SDS011;19565;46.602;11.534;2023-04-29T12:35:05;18.00;;;17.10;;
33206;SDS011;19565;46.602;11.534;2023-04-29T12:37:41;17.65;;;16.83;;
33206;SDS011;19565;46.602;11.534;2023-04-29T12:40:13;17.88;;;16.98;;
33206;SDS011;19565;46.602;11.534;2023-04-29T12:42:42;18.83;;;17.92;;
33206;SDS011;19565;46.602;11.534;2023-04-29T12:45:24;18.80;;;17.90;;
33206;SDS011;19565;46.602;11.534;2023-04-29T12:47:56;18.08;;;17.17;;
33206;SDS011;19565;46.602;11.534;2023-04-29T12:50:31;18.85;;;17.95;;
33206;SDS011;19565;46.602;11.534;2023-04-29T12:53:00;19.02;;;18.13;;
33206;SDS011;19565;46.602;11.534;2023-04-29T12:55:31;18.10;;;17.20;;
33206;SDS011;19565;46.602;11.534;2023-04-29T12:58:00;17.98;;;17.08;;
33206;SDS011;19565;46.602;11.534;2023-04-29T13:00:29;18.30;;;17.40;;
33206;SDS011;19565;46.602;11.534;2023-04-29T13:02:57;17.38;;;16.58;;
33206;SDS011;19565;46.602;11.534;2023-04-29T13:05:25;18.75;;;17.85;;
33206;SDS011;19565;46.602;11.534;2023-04-29T13:07:54;18.00;;;17.10;;
33206;SDS011;19565;46.602;11.534;2023-04-29T13:10:22;18.40;;;17.50;;
33206;SDS011;19565;46.602;11.534;2023-04-29T13:12:51;18.00;;;17.10;;
33206;SDS011;19565;46.602;11.534;2023-04-29T13:15:19;17.80;;;16.90;;
33206;SDS011;19565;46.602;11.534;2023-04-29T13:17:48;17.05;;;16.25;;
33206;SDS011;19565;46.602;11.534;2023-04-29T13:20:17;17.27;;;16.48;;
33206;SDS011;19565;46.602;11.534;2023-04-29T13:22:45;17.27;;;16.48;;
33206;SDS011;19565;46.602;11.534;2023-04-29T13:25:14;17.00;;;16.20;;
33206;SDS011;19565;46.602;11.534;2023-04-29T13:27:42;17.75;;;16.85;;
33206;SDS011;19565;46.602;11.534;2023-04-29T13:30:12;17.10;;;16.30;;
33206;SDS011;19565;46.602;11.534;2023-04-29T13:32:40;17.80;;;16.90;;
33206;SDS011;19565;46.602;11.534;2023-04-29T13:35:19;17.77;;;16.88;;
33206;SDS011;19565;46.602;11.534;2023-04-29T13:37:47;17.20;;;16.40;;
33206;SDS011;19565;46.602;11.534;2023-04-29T13:40:16;18.33;;;17.42;;
33206;SDS011;19565;46.602;11.534;2023-04-29T13:42:46;17.95;;;17.05;;
33206;SDS011;19565;46.602;11.534;2023-04-29T13:45:19;17.15;;;16.35;;
33206;SDS011;19565;46.602;11.534;2023-04-29T13:47:47;18.80;;;17.90;;
33206;SDS011;19565;46.602;11.534;2023-04-29T13:50:18;17.60;;;16.80;;
33206;SDS011;19565;46.602;11.534;2023-04-29T13:53:06;17.90;;;17.00;;
33206;SDS011;19565;46.602;11.534;2023-04-29T13:55:37;16.60;;;15.80;;
33206;SDS011;19565;46.602;11.534;2023-04-29T13:58:25;18.40;;;17.50;;
33206;SDS011;19565;46.602;11.534;2023-04-29T14:00:57;17.52;;;16.73;;
33206;SDS011;19565;46.602;11.534;2023-04-29T14:03:45;17.70;;;16.85;;
33206;SDS011;19565;46.602;11.534;2023-04-29T14:06:14;17.15;;;16.35;;
33206;SDS011;19565;46.602;11.534;2023-04-29T14:08:42;16.95;;;16.15;;
33206;SDS011;19565;46.602;11.534;2023-04-29T14:11:10;19.00;;;18.10;;
33206;SDS011;19565;46.602;11.534;2023-04-29T14:13:38;17.77;;;16.88;;
33206;SDS011;19565;46.602;11.534;2023-04-29T14:16:08;17.55;;;16.70;;
33206;SDS011;19565;46.602;11.534;2023-04-29T14:18:36;18.80;;;17.90;;
33206;SDS011;19565;46.602;11.534;2023-04-29T14:21:04;23.25;;;21.77;;
33206;SDS011;19565;46.602;11.534;2023-04-29T14:23:32;22.75;;;21.38;;
33206;SDS011;19565;46.602;11.534;2023-04-29T14:26:01;19.85;;;18.85;;
33206;SDS011;19565;46.602;11.534;2023-04-29T14:28:49;20.10;;;19.10;;
33206;SDS011;19565;46.602;11.534;2023-04-29T14:31:24;18.25;;;17.35;;
33206;SDS011;19565;46.602;11.534;2023-04-29T14:33:53;17.98;;;17.08;;
33206;SDS011;19565;46.602;11.534;2023-04-29T14:36:21;18.10;;;17.20;;
33206;SDS011;19565;46.602;11.534;2023-04-29T14:38:49;18.60;;;17.70;;
33206;SDS011;19565;46.602;11.534;2023-04-29T14:41:17;18.33;;;17.42;;